createdAt,value
2023-04-21T00:01:00.162Z,16.20
2023-04-21T00:03:28.085Z,18.35
2023-04-21T00:05:58.720Z,15.55
2023-04-21T00:08:26.894Z,17.00
2023-04-21T00:10:53.506Z,16.60
2023-04-21T00:13:20.130Z,23.23
2023-04-21T00:15:46.647Z,17.77
2023-04-21T00:18:13.477Z,13.73
2023-04-21T00:20:39.952Z,17.42
2023-04-21T00:23:06.574Z,18.15
2023-04-21T00:25:33.163Z,16.40
2023-04-21T00:27:59.739Z,17.40
2023-04-21T00:30:26.340Z,17.80
2023-04-21T00:32:52.962Z,21.25
2023-04-21T00:35:19.625Z,18.80
2023-04-21T00:37:46.031Z,18.02
2023-04-21T00:40:13.511Z,19.55
2023-04-21T00:42:40.101Z,16.15
2023-04-21T00:45:07.164Z,16.60
2023-04-21T00:47:33.905Z,18.35
2023-04-21T00:50:00.707Z,20.50
2023-04-21T00:52:28.146Z,19.30
2023-04-21T00:54:55.577Z,18.73
2023-04-21T00:57:22.934Z,19.17
2023-04-21T00:59:50.112Z,18.35
2023-04-21T01:02:17.481Z,19.55
2023-04-21T01:04:45.717Z,16.50
2023-04-21T01:07:12.793Z,21.70
2023-04-21T01:09:39.633Z,17.48
2023-04-21T01:12:11.388Z,19.00
2023-04-21T01:14:40.505Z,20.60
2023-04-21T01:17:08.290Z,16.95
2023-04-21T01:19:41.875Z,17.65
2023-04-21T01:22:11.210Z,17.73
2023-04-21T01:24:48.552Z,18.25
2023-04-21T01:27:21.414Z,17.95
2023-04-21T01:29:50.663Z,19.50
2023-04-21T01:32:36.977Z,17.75
2023-04-21T01:35:03.908Z,16.30
2023-04-21T01:37:32.657Z,15.20
2023-04-21T01:40:01.376Z,17.55
2023-04-21T01:42:29.543Z,16.23
2023-04-21T01:44:56.994Z,17.52
2023-04-21T01:47:24.490Z,16.25
2023-04-21T01:49:51.269Z,17.25
2023-04-21T01:52:17.977Z,17.80
2023-04-21T01:54:44.593Z,14.70
2023-04-21T01:57:11.245Z,16.17
2023-04-21T01:59:37.943Z,18.58
2023-04-21T02:02:05.030Z,18.30
2023-04-21T02:04:31.765Z,18.20
2023-04-21T02:06:58.467Z,17.10
2023-04-21T02:09:25.082Z,19.20
2023-04-21T02:11:51.891Z,15.95
2023-04-21T02:14:18.446Z,15.52
2023-04-21T02:16:44.965Z,17.10
2023-04-21T02:19:11.851Z,18.00
2023-04-21T02:21:38.390Z,17.40
2023-04-21T02:24:05.165Z,14.48
2023-04-21T02:26:31.743Z,20.95
2023-04-21T02:28:58.323Z,21.58
2023-04-21T02:31:24.964Z,16.35
2023-04-21T02:33:51.755Z,15.60
2023-04-21T02:36:18.289Z,15.00
2023-04-21T02:38:44.725Z,15.25
2023-04-21T02:41:11.353Z,18.83
2023-04-21T02:43:37.874Z,17.30
2023-04-21T02:46:08.300Z,16.70
2023-04-21T02:48:36.286Z,17.77
2023-04-21T02:51:04.346Z,16.50
2023-04-21T02:53:31.374Z,18.25
2023-04-21T02:55:58.022Z,15.98
2023-04-21T02:58:24.704Z,14.27
2023-04-21T03:00:51.587Z,17.08
2023-04-21T03:03:18.537Z,18.35
2023-04-21T03:05:45.626Z,16.40
2023-04-21T03:08:12.098Z,18.38
2023-04-21T03:10:38.749Z,17.63
2023-04-21T03:13:05.412Z,19.35
2023-04-21T03:15:31.995Z,16.65
2023-04-21T03:17:58.523Z,18.27
2023-04-21T03:20:25.054Z,16.70
2023-04-21T03:22:54.078Z,16.42
2023-04-21T03:25:20.581Z,18.38
2023-04-21T03:27:47.073Z,18.45
2023-04-21T03:30:13.511Z,19.13
2023-04-21T03:32:40.039Z,18.17
2023-04-21T03:35:06.607Z,18.58
2023-04-21T03:37:33.034Z,21.05
2023-04-21T03:39:59.491Z,19.00
2023-04-21T03:42:26.179Z,22.90
2023-04-21T03:44:52.680Z,19.23
2023-04-21T03:47:19.097Z,17.30
2023-04-21T03:49:45.613Z,16.83
2023-04-21T03:52:12.041Z,20.10
2023-04-21T03:54:38.428Z,19.92
2023-04-21T03:57:05.103Z,18.92
2023-04-21T03:59:31.526Z,14.93
2023-04-21T04:01:57.919Z,14.80
2023-04-21T04:04:24.488Z,22.40
2023-04-21T04:06:50.983Z,17.17
2023-04-21T04:09:17.384Z,21.90
2023-04-21T04:11:43.761Z,17.88
2023-04-21T04:14:10.198Z,16.77
2023-04-21T04:16:36.809Z,15.02
2023-04-21T04:19:03.651Z,14.52
2023-04-21T04:21:31.190Z,19.33
2023-04-21T04:23:57.543Z,16.20
2023-04-21T04:26:25.117Z,16.35
2023-04-21T04:28:56.163Z,15.98
2023-04-21T04:31:25.389Z,16.95
2023-04-21T04:33:55.009Z,18.33
2023-04-21T04:36:22.389Z,16.52
2023-04-21T04:38:48.753Z,16.38
2023-04-21T04:41:16.545Z,20.20
2023-04-21T04:43:43.890Z,16.20
2023-04-21T04:46:11.195Z,16.70
2023-04-21T04:48:37.616Z,17.92
2023-04-21T04:51:04.419Z,20.05
2023-04-21T04:53:31.153Z,16.20
2023-04-21T04:55:59.181Z,15.43
2023-04-21T04:58:25.914Z,14.63
2023-04-21T05:00:52.248Z,16.75
2023-04-21T05:03:18.913Z,17.40
2023-04-21T05:05:46.163Z,18.00
2023-04-21T05:08:12.581Z,17.95
2023-04-21T05:10:38.892Z,15.38
2023-04-21T05:13:05.276Z,15.43
2023-04-21T05:15:31.614Z,17.00
2023-04-21T05:17:58.084Z,13.60
2023-04-21T05:20:24.516Z,15.25
2023-04-21T05:22:50.945Z,15.88
2023-04-21T05:25:17.372Z,18.30
2023-04-21T05:27:43.802Z,17.02
2023-04-21T05:30:10.933Z,15.88
2023-04-21T05:32:37.390Z,15.10
2023-04-21T05:35:04.075Z,15.85
2023-04-21T05:37:30.522Z,22.70
2023-04-21T05:39:56.930Z,17.15
2023-04-21T05:42:23.401Z,18.33
2023-04-21T05:44:49.799Z,16.15
2023-04-21T05:47:16.259Z,15.50
2023-04-21T05:49:49.803Z,18.02
2023-04-21T05:52:17.519Z,19.00
2023-04-21T05:54:44.293Z,17.17
2023-04-21T05:57:10.804Z,15.37
2023-04-21T05:59:37.306Z,16.33
2023-04-21T06:02:04.088Z,14.10
2023-04-21T06:04:31.035Z,14.60
2023-04-21T06:06:57.632Z,16.17
2023-04-21T06:09:24.065Z,19.15
2023-04-21T06:11:50.794Z,17.60
2023-04-21T06:14:17.472Z,14.52
2023-04-21T06:16:44.232Z,16.38
2023-04-21T06:19:10.741Z,17.23
2023-04-21T06:21:37.165Z,15.05
2023-04-21T06:24:03.804Z,17.35
2023-04-21T06:26:30.464Z,19.70
2023-04-21T06:28:56.912Z,18.48
2023-04-21T06:31:23.448Z,17.52
2023-04-21T06:33:49.893Z,17.08
2023-04-21T06:36:17.984Z,16.60
2023-04-21T06:38:44.779Z,16.13
2023-04-21T06:41:11.220Z,15.70
2023-04-21T06:43:37.800Z,15.43
2023-04-21T06:46:04.315Z,16.40
2023-04-21T06:48:31.036Z,17.55
2023-04-21T06:50:57.497Z,18.08
2023-04-21T06:53:24.327Z,15.68
2023-04-21T06:55:50.843Z,18.92
2023-04-21T06:58:17.977Z,14.75
2023-04-21T07:00:46.310Z,13.50
2023-04-21T07:03:12.911Z,14.55
2023-04-21T07:05:39.476Z,20.83
2023-04-21T07:08:05.884Z,16.80
2023-04-21T07:10:32.394Z,21.15
2023-04-21T07:12:58.846Z,16.23
2023-04-21T07:15:25.242Z,19.45
2023-04-21T07:17:52.052Z,15.85
2023-04-21T07:20:18.845Z,16.75
2023-04-21T07:22:45.422Z,15.00
2023-04-21T07:25:12.585Z,19.85
2023-04-21T07:27:39.613Z,15.73
2023-04-21T07:30:07.063Z,15.68
2023-04-21T07:32:33.913Z,20.05
2023-04-21T07:35:01.949Z,18.75
2023-04-21T07:37:31.582Z,17.70
2023-04-21T07:39:57.974Z,20.65
2023-04-21T07:42:27.424Z,15.18
2023-04-21T07:44:55.924Z,18.35
2023-04-21T07:47:22.384Z,15.23
2023-04-21T07:49:54.078Z,17.95
2023-04-21T07:52:20.516Z,17.02
2023-04-21T07:54:47.038Z,15.30
2023-04-21T07:57:13.686Z,15.73
2023-04-21T07:59:40.163Z,19.05
2023-04-21T08:02:06.719Z,17.83
2023-04-21T08:04:33.270Z,15.50
2023-04-21T08:07:00.345Z,18.60
2023-04-21T08:09:27.431Z,17.38
2023-04-21T08:11:54.936Z,19.27
2023-04-21T08:14:21.765Z,15.98
2023-04-21T08:16:48.461Z,17.13
2023-04-21T08:19:14.985Z,15.90
2023-04-21T08:21:41.548Z,14.43
2023-04-21T08:24:08.124Z,20.20
2023-04-21T08:26:35.347Z,16.20
2023-04-21T08:29:04.040Z,18.98
2023-04-21T08:31:31.097Z,17.08
2023-04-21T08:34:02.049Z,18.58
2023-04-21T08:36:30.403Z,18.92
2023-04-21T08:38:57.979Z,16.25
2023-04-21T08:41:25.984Z,17.65
2023-04-21T08:43:52.471Z,15.65
2023-04-21T08:46:19.593Z,16.98
2023-04-21T08:48:46.921Z,18.58
2023-04-21T08:51:20.983Z,17.77
2023-04-21T08:53:47.407Z,14.02
2023-04-21T08:56:13.805Z,15.52
2023-04-21T08:58:41.512Z,21.63
2023-04-21T09:01:08.028Z,17.23
2023-04-21T09:03:34.741Z,20.25
2023-04-21T09:06:05.504Z,20.88
2023-04-21T09:08:32.963Z,19.05
2023-04-21T09:11:01.345Z,13.93
2023-04-21T09:13:33.246Z,15.45
2023-04-21T09:16:01.074Z,15.65
2023-04-21T09:18:40.474Z,15.80
2023-04-21T09:21:32.424Z,17.30
2023-04-21T09:24:06.514Z,13.95
2023-04-21T09:26:35.123Z,14.73
2023-04-21T09:29:06.934Z,16.80
2023-04-21T09:31:35.751Z,14.45
2023-04-21T09:34:02.643Z,15.75
2023-04-21T09:36:31.765Z,14.55
2023-04-21T09:41:32.487Z,16.73
2023-04-21T09:44:04.868Z,21.35
2023-04-21T09:46:45.013Z,14.55
2023-04-21T09:49:14.073Z,13.88
2023-04-21T09:52:14.317Z,16.73
2023-04-21T09:54:34.459Z,14.95
2023-04-21T09:57:03.924Z,15.70
2023-04-21T09:59:37.056Z,13.93
2023-04-21T10:02:08.083Z,18.35
2023-04-21T10:04:37.020Z,12.98
2023-04-21T10:07:04.185Z,16.35
2023-04-21T10:09:40.512Z,15.30
2023-04-21T10:12:10.384Z,20.67
2023-04-21T10:14:37.125Z,14.32
2023-04-21T10:17:11.152Z,14.60
2023-04-21T10:19:47.629Z,13.20
2023-04-21T10:22:14.175Z,13.68
2023-04-21T10:24:42.412Z,15.68
2023-04-21T10:27:13.120Z,13.02
2023-04-21T10:29:52.306Z,14.55
2023-04-21T10:32:42.472Z,16.67
2023-04-21T10:35:17.796Z,10.82
2023-04-21T10:37:48.722Z,12.38
2023-04-21T10:40:43.093Z,11.27
2023-04-21T10:43:43.440Z,13.10
2023-04-21T10:46:35.567Z,12.93
2023-04-21T10:49:09.259Z,12.43
2023-04-21T10:51:57.840Z,11.40
2023-04-21T10:54:28.237Z,11.05
2023-04-21T10:56:56.263Z,12.80
2023-04-21T10:59:23.996Z,17.42
2023-04-21T11:01:50.754Z,12.95
2023-04-21T11:04:22.227Z,10.48
2023-04-21T11:07:19.542Z,8.55
2023-04-21T11:09:48.412Z,9.75
2023-04-21T11:12:18.188Z,12.05
2023-04-21T11:14:48.203Z,9.85
2023-04-21T11:17:19.517Z,10.05
2023-04-21T11:19:56.665Z,12.15
2023-04-21T11:22:25.436Z,8.13
2023-04-21T11:24:54.745Z,8.70
2023-04-21T11:27:24.885Z,7.80
2023-04-21T11:29:51.678Z,11.00
2023-04-21T11:32:18.740Z,14.68
2023-04-21T11:34:45.772Z,7.78
2023-04-21T11:37:23.856Z,8.65
2023-04-21T11:39:50.490Z,8.18
2023-04-21T11:42:22.888Z,7.72
2023-04-21T11:44:49.371Z,8.77
2023-04-21T11:47:18.623Z,9.95
2023-04-21T11:49:57.293Z,9.50
2023-04-21T11:52:36.019Z,8.48
2023-04-21T11:55:15.295Z,9.25
2023-04-21T11:57:42.286Z,7.22
2023-04-21T12:00:11.998Z,7.88
2023-04-21T12:02:39.187Z,8.13
2023-04-21T12:05:08.339Z,8.65
2023-04-21T12:07:37.553Z,8.40
2023-04-21T12:10:18.628Z,6.50
2023-04-21T12:12:46.187Z,7.47
2023-04-21T12:15:20.441Z,8.00
2023-04-21T12:17:48.967Z,9.05
2023-04-21T12:20:17.407Z,8.18
2023-04-21T12:22:44.376Z,6.45
2023-04-21T12:25:11.213Z,8.90
2023-04-21T12:27:37.825Z,6.75
2023-04-21T12:30:04.809Z,9.48
2023-04-21T12:32:31.528Z,4.80
2023-04-21T12:34:58.053Z,10.77
2023-04-21T12:37:24.584Z,7.55
2023-04-21T12:39:51.164Z,6.10
2023-04-21T12:42:17.652Z,5.55
2023-04-21T12:44:44.329Z,6.72
2023-04-21T12:47:10.788Z,5.32
2023-04-21T12:49:38.062Z,10.13
2023-04-21T12:52:06.096Z,8.52
2023-04-21T12:54:33.020Z,7.65
2023-04-21T12:56:59.662Z,6.15
2023-04-21T12:59:26.501Z,5.63
2023-04-21T13:01:53.192Z,7.78
2023-04-21T13:04:19.962Z,6.70
2023-04-21T13:06:46.778Z,5.45
2023-04-21T13:09:13.312Z,3.97
2023-04-21T13:11:39.977Z,5.95
2023-04-21T13:14:07.504Z,6.07
2023-04-21T13:16:34.103Z,10.63
2023-04-21T13:19:00.770Z,5.15
2023-04-21T13:21:27.840Z,9.13
2023-04-21T13:23:54.521Z,4.80
2023-04-21T13:26:21.097Z,10.45
2023-04-21T13:28:47.963Z,5.60
2023-04-21T13:31:14.513Z,6.05
2023-04-21T13:33:52.194Z,6.70
2023-04-21T13:36:20.097Z,7.47
2023-04-21T13:38:56.385Z,7.28
2023-04-21T13:41:23.052Z,9.90
2023-04-21T13:43:50.234Z,5.97
2023-04-21T13:46:16.852Z,4.07
2023-04-21T13:48:45.221Z,5.78
2023-04-21T13:51:11.705Z,6.60
2023-04-21T13:53:38.229Z,5.47
2023-04-21T13:56:05.000Z,4.40
2023-04-21T13:58:31.635Z,4.70
2023-04-21T14:00:58.723Z,6.50
2023-04-21T14:03:25.414Z,6.68
2023-04-21T14:05:52.267Z,4.43
2023-04-21T14:08:18.837Z,6.75
2023-04-21T14:10:45.483Z,7.82
2023-04-21T14:13:23.085Z,6.80
2023-04-21T14:15:53.919Z,5.05
2023-04-21T14:18:20.628Z,7.25
2023-04-21T14:20:47.366Z,6.32
2023-04-21T14:23:13.878Z,7.25
2023-04-21T14:25:40.520Z,4.15
2023-04-21T14:28:08.407Z,4.70
2023-04-21T14:30:38.613Z,6.18
2023-04-21T14:33:05.654Z,9.10
2023-04-21T14:35:32.352Z,9.57
2023-04-21T14:37:59.260Z,6.55
2023-04-21T14:40:25.932Z,6.47
2023-04-21T14:42:52.572Z,5.30
2023-04-21T14:45:19.093Z,5.57
2023-04-21T14:47:45.864Z,5.85
2023-04-21T14:50:12.534Z,4.72
2023-04-21T14:52:39.801Z,5.72
2023-04-21T14:55:06.761Z,5.80
2023-04-21T14:57:33.323Z,8.55
2023-04-21T15:00:00.317Z,7.25
2023-04-21T15:02:27.037Z,5.88
2023-04-21T15:04:53.883Z,6.03
2023-04-21T15:07:24.337Z,8.32
2023-04-21T15:09:51.988Z,9.15
2023-04-21T15:12:18.701Z,6.53
2023-04-21T15:14:45.407Z,4.97
2023-04-21T15:17:11.945Z,7.05
2023-04-21T15:19:38.347Z,6.45
2023-04-21T15:22:05.058Z,8.20
2023-04-21T15:24:31.760Z,12.27
2023-04-21T15:26:58.364Z,11.43
2023-04-21T15:29:24.860Z,6.93
2023-04-21T15:31:51.359Z,4.70
2023-04-21T15:34:17.968Z,7.88
2023-04-21T15:36:44.564Z,6.85
2023-04-21T15:39:14.007Z,5.78
2023-04-21T15:41:40.944Z,10.43
2023-04-21T15:44:07.708Z,5.53
2023-04-21T15:46:37.175Z,5.65
2023-04-21T15:49:03.836Z,11.93
2023-04-21T15:51:34.556Z,6.93
2023-04-21T15:54:01.102Z,7.40
2023-04-21T15:56:27.601Z,5.25
2023-04-21T15:58:54.049Z,4.53
2023-04-21T16:01:22.296Z,7.95
2023-04-21T16:03:49.733Z,5.28
2023-04-21T16:06:16.741Z,8.25
2023-04-21T16:08:43.645Z,3.65
2023-04-21T16:11:10.371Z,7.28
2023-04-21T16:13:36.908Z,7.25
2023-04-21T16:16:03.621Z,6.90
2023-04-21T16:18:30.287Z,6.05
2023-04-21T16:20:56.932Z,5.10
2023-04-21T16:23:25.309Z,5.50
2023-04-21T16:25:51.961Z,4.53
2023-04-21T16:28:18.559Z,8.27
2023-04-21T16:30:45.704Z,13.20
2023-04-21T16:33:13.110Z,4.78
2023-04-21T16:35:40.040Z,9.10
2023-04-21T16:38:07.083Z,10.48
2023-04-21T16:40:34.204Z,11.95
2023-04-21T16:43:00.935Z,4.13
2023-04-21T16:45:28.742Z,6.07
2023-04-21T16:47:55.808Z,7.80
2023-04-21T16:50:22.565Z,8.82
2023-04-21T16:52:49.098Z,11.02
2023-04-21T16:55:15.917Z,6.50
2023-04-21T16:57:42.432Z,8.07
2023-04-21T17:00:09.471Z,5.93
2023-04-21T17:02:36.420Z,4.63
2023-04-21T17:05:03.862Z,5.57
2023-04-21T17:07:32.050Z,7.95
2023-04-21T17:09:58.761Z,3.75
2023-04-21T17:12:25.354Z,3.17
2023-04-21T17:14:52.016Z,4.75
2023-04-21T17:17:18.629Z,6.05
2023-04-21T17:19:45.304Z,6.55
2023-04-21T17:22:11.978Z,7.43
2023-04-21T17:24:51.683Z,9.50
2023-04-21T17:27:19.589Z,7.85
2023-04-21T17:29:46.949Z,6.13
2023-04-21T17:32:13.943Z,4.32
2023-04-21T17:34:40.756Z,4.95
2023-04-21T17:37:07.374Z,7.25
2023-04-21T17:39:33.958Z,5.95
2023-04-21T17:42:01.915Z,6.63
2023-04-21T17:44:28.457Z,8.48
2023-04-21T17:46:54.983Z,4.38
2023-04-21T17:49:23.075Z,6.78
2023-04-21T17:51:49.513Z,5.90
2023-04-21T17:54:16.984Z,5.97
2023-04-21T17:56:46.073Z,4.05
2023-04-21T17:59:12.664Z,9.55
2023-04-21T18:01:39.209Z,8.05
2023-04-21T18:04:05.945Z,7.43
2023-04-21T18:06:32.644Z,5.10
2023-04-21T18:08:59.192Z,5.72
2023-04-21T18:11:25.589Z,10.70
2023-04-21T18:13:52.049Z,4.47
2023-04-21T18:16:18.626Z,6.57
2023-04-21T18:18:47.208Z,6.15
2023-04-21T18:21:14.650Z,3.55
2023-04-21T18:23:41.218Z,9.93
2023-04-21T18:26:10.141Z,4.97
2023-04-21T18:28:36.815Z,5.85
2023-04-21T18:31:03.755Z,4.30
2023-04-21T18:33:30.434Z,5.60
2023-04-21T18:35:57.000Z,5.82
2023-04-21T18:38:23.591Z,6.55
2023-04-21T18:40:50.043Z,6.97
2023-04-21T18:43:16.861Z,6.95
2023-04-21T18:45:43.466Z,5.75
2023-04-21T18:48:10.051Z,6.38
2023-04-21T18:50:39.877Z,4.65
2023-04-21T18:53:07.771Z,5.15
2023-04-21T18:55:35.926Z,5.30
2023-04-21T18:58:02.627Z,6.78
2023-04-21T19:00:29.783Z,6.05
2023-04-21T19:02:56.582Z,4.72
2023-04-21T19:05:23.307Z,4.60
2023-04-21T19:07:49.819Z,5.22
2023-04-21T19:10:16.500Z,6.63
2023-04-21T19:12:43.149Z,5.78
2023-04-21T19:15:10.120Z,7.43
2023-04-21T19:17:36.771Z,3.97
2023-04-21T19:20:03.736Z,5.35
2023-04-21T19:22:31.917Z,5.88
2023-04-21T19:24:58.352Z,6.03
2023-04-21T19:27:24.910Z,8.02
2023-04-21T19:29:51.475Z,5.18
2023-04-21T19:32:18.194Z,6.10
2023-04-21T19:34:44.830Z,5.38
2023-04-21T19:37:11.526Z,7.85
2023-04-21T19:39:38.015Z,5.82
2023-04-21T19:42:04.816Z,9.27
2023-04-21T19:44:31.823Z,6.68
2023-04-21T19:46:58.474Z,6.38
2023-04-21T19:49:24.965Z,6.45
2023-04-21T19:51:51.815Z,8.27
2023-04-21T19:54:18.184Z,10.15
2023-04-21T19:56:45.017Z,7.22
2023-04-21T19:59:11.467Z,10.07
2023-04-21T20:01:37.930Z,5.72
2023-04-21T20:04:05.242Z,9.45
2023-04-21T20:06:32.984Z,10.27
2023-04-21T20:08:59.388Z,5.63
2023-04-21T20:11:28.788Z,4.85
2023-04-21T20:13:55.945Z,6.70
2023-04-21T20:16:22.514Z,10.95
2023-04-21T20:18:49.474Z,5.47
2023-04-21T20:21:16.021Z,8.77
2023-04-21T20:23:43.534Z,7.53
2023-04-21T20:26:10.192Z,7.78
2023-04-21T20:28:36.688Z,8.75
2023-04-21T20:31:03.233Z,4.25
2023-04-21T20:33:30.440Z,5.80
2023-04-21T20:35:57.090Z,7.10
2023-04-21T20:38:26.562Z,6.93
2023-04-21T20:40:53.257Z,7.50
2023-04-21T20:43:20.178Z,10.85
2023-04-21T20:45:50.308Z,13.75
2023-04-21T20:48:16.799Z,7.30
2023-04-21T20:50:45.467Z,9.23
2023-04-21T20:53:12.465Z,6.22
2023-04-21T20:55:38.905Z,7.28
2023-04-21T20:58:05.440Z,10.70
2023-04-21T21:00:34.118Z,7.78
2023-04-21T21:03:00.877Z,6.35
2023-04-21T21:05:29.061Z,6.32
2023-04-21T21:07:56.685Z,5.43
2023-04-21T21:10:23.127Z,4.25
2023-04-21T21:12:49.580Z,9.00
2023-04-21T21:15:16.207Z,8.07
2023-04-21T21:20:13.482Z,9.30
2023-04-21T21:22:39.952Z,6.20
2023-04-21T21:25:06.792Z,7.25
2023-04-21T21:27:33.346Z,6.93
2023-04-21T21:29:59.982Z,3.83
2023-04-21T21:35:20.239Z,4.07
2023-04-21T21:37:47.165Z,4.57
2023-04-21T21:40:14.251Z,5.60
2023-04-21T21:42:40.832Z,5.95
2023-04-21T21:45:08.262Z,3.95
2023-04-21T21:47:38.300Z,4.35
2023-04-21T21:50:07.707Z,3.70
2023-04-21T21:52:34.270Z,5.18
2023-04-21T21:55:00.921Z,6.57
2023-04-21T21:57:27.495Z,3.95
2023-04-21T21:59:54.068Z,5.82
2023-04-21T22:02:20.683Z,2.40
2023-04-21T22:04:47.634Z,3.72
2023-04-21T22:07:14.333Z,3.55
2023-04-21T22:09:41.426Z,2.65
2023-04-21T22:12:08.243Z,2.80
2023-04-21T22:14:35.151Z,2.42
2023-04-21T22:17:02.971Z,2.28
2023-04-21T22:19:31.007Z,2.80
2023-04-21T22:21:57.851Z,3.55
2023-04-21T22:24:24.381Z,3.03
2023-04-21T22:26:51.116Z,7.40
2023-04-21T22:29:17.797Z,2.53
2023-04-21T22:31:44.482Z,3.88
2023-04-21T22:34:15.004Z,2.78
2023-04-21T22:36:41.525Z,3.25
2023-04-21T22:39:08.093Z,2.13
2023-04-21T22:41:34.654Z,2.95
2023-04-21T22:44:01.178Z,3.53
2023-04-21T22:46:32.031Z,2.50
2023-04-21T22:48:59.871Z,2.72
2023-04-21T22:51:27.808Z,2.78
2023-04-21T22:53:54.340Z,3.78
2023-04-21T22:56:21.175Z,2.38
2023-04-21T22:58:47.862Z,3.05
2023-04-21T23:01:14.690Z,2.83
2023-04-21T23:03:41.447Z,2.60
2023-04-21T23:06:08.299Z,3.30
2023-04-21T23:08:34.825Z,4.68
2023-04-21T23:11:01.976Z,3.83
2023-04-21T23:13:28.516Z,2.60
2023-04-21T23:15:55.039Z,2.30
2023-04-21T23:18:21.682Z,2.15
2023-04-21T23:20:48.232Z,2.20
2023-04-21T23:23:14.730Z,3.60
2023-04-21T23:25:41.245Z,3.15
2023-04-21T23:28:07.772Z,4.05
2023-04-21T23:30:34.610Z,5.50
2023-04-21T23:33:01.342Z,2.63
2023-04-21T23:35:27.986Z,2.88
2023-04-21T23:37:54.583Z,3.38
2023-04-21T23:40:21.151Z,2.80
2023-04-21T23:42:48.130Z,4.65
2023-04-21T23:45:15.339Z,4.25
2023-04-21T23:47:42.029Z,4.03
2023-04-21T23:50:08.948Z,4.43
2023-04-21T23:52:35.543Z,3.90
2023-04-21T23:55:02.197Z,3.05
2023-04-21T23:57:28.938Z,3.28
2023-04-21T23:59:55.472Z,4.43
